Time;durP1;ratioP1;P1;durP2;ratioP2;P2;SDS_P1;SDS_P2;PMS_P1;PMS_P2;Temp;Humidity;BMP_temperature;BMP_pressure;BME280_temperature;BME280_humidity;BME280_pressure;Samples;Min_cycle;Max_cycle;Signal;HPM_P1;HPM_P2
2023/04/18 00:01:05;;;;;;;;;;;;;;;;;;4997965;28;19920;-78
2023/04/18 00:03:30;;;;;;;;;;;;;;;;;;4998650;28;20021;-79
2023/04/18 00:05:56;;;;;;;;;;;;;;;;;;4993784;28;19918;-78
2023/04/18 00:08:22;;;;;;;;;;;;;;;;;;4992050;28;19917;-79
2023/04/18 00:10:47;;;;;;;;;;;;;;;;;;5007480;28;19914;-79
2023/04/18 00:13:12;;;;;;;;;;;;;;;;;;5005548;28;20434;-79
2023/04/18 00:15:38;;;;;;;;;;;;;;;;;;5033018;28;20015;-79
2023/04/18 00:18:04;;;;;;;;;;;;;;;;;;5015068;28;20051;-79
2023/04/18 00:20:30;;;;;;;;;;;;;;;;;;5032392;28;19913;-79
2023/04/18 00:22:55;;;;;;;;;;;;;;;;;;5014266;28;20012;-80
2023/04/18 00:25:20;;;;;;;;;;;;;;;;;;5011348;28;19924;-79
2023/04/18 00:27:46;;;;;;;;;;;;;;;;;;5044405;28;19916;-78
2023/04/18 00:30:11;;;;;;;;;;;;;;;;;;5011361;28;19913;-79
2023/04/18 00:32:36;;;;;;;;;;;;;;;;;;5014209;28;19910;-79
2023/04/18 00:35:02;;;;;;;;;;;;;;;;;;5031361;28;20000;-78
2023/04/18 00:37:28;;;;;;;;;;;;;;;;;;5040080;28;19913;-80
2023/04/18 00:39:53;;;;;;;;;;;;;;;;;;5008570;28;19913;-79
2023/04/18 00:42:19;;;;;;;;;;;;;;;;;;5038528;28;20309;-79
2023/04/18 00:44:44;;;;;;;;;;;;;;;;;;4998075;28;20320;-79
2023/04/18 00:47:09;;;;;;;;;;;;;;;;;;4996984;28;19910;-79
2023/04/18 00:49:35;;;;;;;;;;;;;;;;;;4995817;28;19913;-79
2023/04/18 00:52:00;;;;;;;;;;;;;;;;;;4994678;28;19910;-79
2023/04/18 00:54:26;;;;;;;;;;;;;;;;;;4997002;28;20284;-78
2023/04/18 00:56:51;;;;;;;;;;;;;;;;;;4996850;28;19910;-78
2023/04/18 00:59:17;;;;;;;;;;;;;;;;;;4995530;28;20377;-78
2023/04/18 01:01:44;;;;;;;;;;;;;;;;;;4995178;28;19940;-78
2023/04/18 01:04:10;;;;;;;;;;;;;;;;;;5004221;28;19913;-77
2023/04/18 01:06:36;;;;;;;;;;;;;;;;;;4990575;28;19921;-77
2023/04/18 01:09:02;;;;;;;;;;;;;;;;;;4996653;28;19917;-77
2023/04/18 01:11:27;;;;;;;;;;;;;;;;;;4994546;28;19936;-78
2023/04/18 01:13:53;;;;;;;;;;;;;;;;;;4996284;28;19913;-78
2023/04/18 01:16:18;;;;;;;;;;;;;;;;;;4996306;28;20282;-77
2023/04/18 01:18:43;;;;;;;;;;;;;;;;;;5002939;28;19913;-78
2023/04/18 01:21:08;;;;;;;;;;;;;;;;;;4994532;28;20017;-78
2023/04/18 01:23:34;;;;;;;;;;;;;;;;;;5027447;28;20381;-78
2023/04/18 01:25:59;;;;;;;;;;;;;;;;;;4995978;28;20008;-78
2023/04/18 01:28:26;;;;;;;;;;;;;;;;;;4996305;28;19918;-78
2023/04/18 01:30:54;;;;;;;;;;;;;;;;;;4979125;28;19964;-78
2023/04/18 01:33:20;;;;;;;;;;;;;;;;;;4996458;28;20384;-78
2023/04/18 01:35:45;;;;;;;;;;;;;;;;;;4995915;28;19922;-78
2023/04/18 01:38:11;;;;;;;;;;;;;;;;;;5027415;28;19921;-78
2023/04/18 01:40:36;;;;;;;;;;;;;;;;;;4996381;28;19964;-78
2023/04/18 01:43:01;;;;;;;;;;;;;;;;;;4994485;28;20335;-78
2023/04/18 01:45:26;;;;;;;;;;;;;;;;;;5023716;28;19936;-77
2023/04/18 01:47:52;;;;;;;;;;;;;;;;;;4988309;28;19914;-77
2023/04/18 01:50:17;;;;;;;;;;;;;;;;;;4996094;28;20274;-78
2023/04/18 01:52:43;;;;;;;;;;;;;;;;;;4997405;28;19914;-78
2023/04/18 01:55:08;;;;;;;;;;;;;;;;;;5001260;28;19920;-78
2023/04/18 01:57:37;;;;;;;;;;;;;;;;;;4999845;28;19914;-78
2023/04/18 02:00:02;;;;;;;;;;;;;;;;;;5000954;28;19913;-78
2023/04/18 02:02:28;;;;;;;;;;;;;;;;;;4981223;28;19918;-79
2023/04/18 02:04:53;;;;;;;;;;;;;;;;;;4994259;28;19919;-78
2023/04/18 02:07:18;;;;;;;;;;;;;;;;;;4977895;28;19925;-79
2023/04/18 02:09:43;;;;;;;;;;;;;;;;;;4995523;28;20041;-79
2023/04/18 02:12:11;;;;;;;;;;;;;;;;;;5000027;28;19913;-79
2023/04/18 02:14:37;;;;;;;;;;;;;;;;;;4993543;28;19917;-78
2023/04/18 02:17:02;;;;;;;;;;;;;;;;;;4995082;28;19918;-78
2023/04/18 02:19:28;;;;;;;;;;;;;;;;;;4995166;28;19960;-78
2023/04/18 02:21:53;;;;;;;;;;;;;;;;;;5026360;28;20007;-78
2023/04/18 02:24:18;;;;;;;;;;;;;;;;;;4994813;28;19945;-79
2023/04/18 02:26:44;;;;;;;;;;;;;;;;;;5026054;28;19913;-79
2023/04/18 02:29:09;;;;;;;;;;;;;;;;;;4994251;28;20008;-78
2023/04/18 02:31:35;;;;;;;;;;;;;;;;;;5016994;28;20309;-78
2023/04/18 02:34:00;;;;;;;;;;;;;;;;;;4993351;28;19910;-78
2023/04/18 02:36:27;;;;;;;;;;;;;;;;;;4994740;28;19922;-79
2023/04/18 02:38:52;;;;;;;;;;;;;;;;;;4985159;28;20300;-78
2023/04/18 02:41:19;;;;;;;;;;;;;;;;;;5015762;28;19918;-78
2023/04/18 02:43:45;;;;;;;;;;;;;;;;;;4993427;28;19913;-78
2023/04/18 02:46:13;;;;;;;;;;;;;;;;;;4993191;28;19922;-78
2023/04/18 02:48:38;;;;;;;;;;;;;;;;;;4994754;28;20022;-79
2023/04/18 02:51:04;;;;;;;;;;;;;;;;;;4994545;28;19913;-79
2023/04/18 02:53:31;;;;;;;;;;;;;;;;;;4998055;28;19988;-79
2023/04/18 02:55:56;;;;;;;;;;;;;;;;;;4998443;28;19914;-79
2023/04/18 02:58:29;;;;;;;;;;;;;;;;;;4982864;28;19920;-78
2023/04/18 03:01:13;;;;;;;;;;;;;;;;;;4996960;28;19920;-79
2023/04/18 03:03:38;;;;;;;;;;;;;;;;;;4998208;28;20004;-78
2023/04/18 03:06:30;;;;;;;;;;;;;;;;;;4993413;28;19921;-79
2023/04/18 03:08:56;;;;;;;;;;;;;;;;;;4976924;28;19960;-78
2023/04/18 03:11:22;;;;;;;;;;;;;;;;;;5001286;28;19909;-79
2023/04/18 03:13:48;;;;;;;;;;;;;;;;;;5013736;28;20416;-78
2023/04/18 03:16:13;;;;;;;;;;;;;;;;;;5012286;28;19910;-79
2023/04/18 03:18:40;;;;;;;;;;;;;;;;;;5018825;28;19920;-79
2023/04/18 03:21:06;;;;;;;;;;;;;;;;;;5019806;28;20004;-80
2023/04/18 03:23:32;;;;;;;;;;;;;;;;;;5012727;28;19920;-78
2023/04/18 03:25:59;;;;;;;;;;;;;;;;;;5019913;28;19922;-77
2023/04/18 03:28:28;;;;;;;;;;;;;;;;;;4992697;28;19918;-78
2023/04/18 03:30:53;;;;;;;;;;;;;;;;;;5024395;28;20282;-80
2023/04/18 03:33:18;;;;;;;;;;;;;;;;;;5024822;28;20496;-78
2023/04/18 03:35:45;;;;;;;;;;;;;;;;;;5018847;28;19968;-79
2023/04/18 03:38:11;;;;;;;;;;;;;;;;;;4992712;28;19914;-78
2023/04/18 03:40:38;;;;;;;;;;;;;;;;;;5025328;28;19910;-78
2023/04/18 03:43:10;;;;;;;;;;;;;;;;;;5023527;28;19920;-79
2023/04/18 03:45:35;;;;;;;;;;;;;;;;;;5024938;28;19918;-80
2023/04/18 03:48:00;;;;;;;;;;;;;;;;;;5025071;28;19910;-80
2023/04/18 03:50:26;;;;;;;;;;;;;;;;;;5010530;28;20387;-80
2023/04/18 03:52:54;;;;;;;;;;;;;;;;;;5008390;28;19910;-77
2023/04/18 03:55:19;;;;;;;;;;;;;;;;;;5024771;28;19921;-78
2023/04/18 03:57:45;;;;;;;;;;;;;;;;;;4996609;28;19909;-77
2023/04/18 04:00:17;;;;;;;;;;;;;;;;;;5023285;28;19936;-79
2023/04/18 04:02:48;;;;;;;;;;;;;;;;;;4992042;28;19922;-80
2023/04/18 04:05:18;;;;;;;;;;;;;;;;;;5037345;28;19917;-79
2023/04/18 04:07:44;;;;;;;;;;;;;;;;;;5025116;28;20293;-79
2023/04/18 04:10:10;;;;;;;;;;;;;;;;;;5024948;28;20353;-79
2023/04/18 04:12:35;;;;;;;;;;;;;;;;;;4992166;28;19910;-80
2023/04/18 04:15:01;;;;;;;;;;;;;;;;;;4991749;28;19914;-78
2023/04/18 04:17:26;;;;;;;;;;;;;;;;;;4991993;28;20292;-78
2023/04/18 04:19:52;;;;;;;;;;;;;;;;;;4991717;28;19913;-78
2023/04/18 04:22:18;;;;;;;;;;;;;;;;;;4991994;28;19960;-79
2023/04/18 04:24:45;;;;;;;;;;;;;;;;;;5005829;28;20333;-79
2023/04/18 04:27:12;;;;;;;;;;;;;;;;;;5006207;28;19910;-80
2023/04/18 04:29:38;;;;;;;;;;;;;;;;;;5015070;28;20382;-78
2023/04/18 04:32:04;;;;;;;;;;;;;;;;;;5008644;28;19964;-79
2023/04/18 04:34:34;;;;;;;;;;;;;;;;;;5013072;28;20007;-80
2023/04/18 04:37:02;;;;;;;;;;;;;;;;;;4997101;28;19977;-80
2023/04/18 04:39:30;;;;;;;;;;;;;;;;;;4993149;28;19913;-79
2023/04/18 04:42:14;;;;;;;;;;;;;;;;;;5021713;28;19945;-79
2023/04/18 04:44:49;;;;;;;;;;;;;;;;;;5012171;28;19918;-78
2023/04/18 04:47:15;;;;;;;;;;;;;;;;;;4991690;28;19936;-76
2023/04/18 04:49:40;;;;;;;;;;;;;;;;;;4991618;28;19959;-79
2023/04/18 04:52:06;;;;;;;;;;;;;;;;;;4992714;28;19917;-79
2023/04/18 04:54:31;;;;;;;;;;;;;;;;;;4994207;28;19913;-80
2023/04/18 04:56:57;;;;;;;;;;;;;;;;;;5027758;28;19914;-80
2023/04/18 04:59:22;;;;;;;;;;;;;;;;;;5028493;28;19960;-78
2023/04/18 05:01:47;;;;;;;;;;;;;;;;;;5010203;28;20357;-79
2023/04/18 05:04:13;;;;;;;;;;;;;;;;;;5027982;28;19916;-79
2023/04/18 05:06:39;;;;;;;;;;;;;;;;;;5006334;28;19928;-80
2023/04/18 05:09:04;;;;;;;;;;;;;;;;;;4996873;28;19909;-79
2023/04/18 05:11:29;;;;;;;;;;;;;;;;;;4996471;28;20353;-79
2023/04/18 05:13:55;;;;;;;;;;;;;;;;;;4996576;28;19916;-78
2023/04/18 05:16:20;;;;;;;;;;;;;;;;;;4996249;28;19960;-80
2023/04/18 05:18:45;;;;;;;;;;;;;;;;;;4995022;28;19910;-80
2023/04/18 05:21:11;;;;;;;;;;;;;;;;;;4994192;28;19914;-84
2023/04/18 05:23:36;;;;;;;;;;;;;;;;;;4993312;28;19910;-81
2023/04/18 05:26:01;;;;;;;;;;;;;;;;;;5001465;28;20044;-82
2023/04/18 05:28:27;;;;;;;;;;;;;;;;;;5014834;28;19920;-81
2023/04/18 05:30:59;;;;;;;;;;;;;;;;;;5013175;28;19920;-83
2023/04/18 05:33:25;;;;;;;;;;;;;;;;;;5015620;28;19917;-81
2023/04/18 05:35:50;;;;;;;;;;;;;;;;;;5012294;28;19921;-81
2023/04/18 05:38:16;;;;;;;;;;;;;;;;;;5003152;28;19914;-83
2023/04/18 05:40:42;;;;;;;;;;;;;;;;;;5016150;28;19909;-83
2023/04/18 05:43:07;;;;;;;;;;;;;;;;;;5010693;28;20003;-82
2023/04/18 05:45:32;;;;;;;;;;;;;;;;;;5012181;28;19945;-81
2023/04/18 05:47:58;;;;;;;;;;;;;;;;;;5014126;28;20475;-83
2023/04/18 05:50:23;;;;;;;;;;;;;;;;;;5014111;28;19944;-83
2023/04/18 05:52:49;;;;;;;;;;;;;;;;;;5012814;28;19992;-82
2023/04/18 05:55:14;;;;;;;;;;;;;;;;;;5024580;28;19909;-81
2023/04/18 05:57:40;;;;;;;;;;;;;;;;;;5022315;28;19929;-83
2023/04/18 06:00:05;;;;;;;;;;;;;;;;;;5012746;28;19977;-83
2023/04/18 06:02:37;;;;;;;;;;;;;;;;;;5009846;28;19918;-81
2023/04/18 06:05:03;;;;;;;;;;;;;;;;;;5009113;28;20052;-82
2023/04/18 06:07:28;;;;;;;;;;;;;;;;;;5012305;28;19937;-83
2023/04/18 06:09:53;;;;;;;;;;;;;;;;;;5011775;28;19921;-82
2023/04/18 06:12:19;;;;;;;;;;;;;;;;;;5000704;28;19933;-81
2023/04/18 06:14:44;;;;;;;;;;;;;;;;;;5009008;28;19924;-81
2023/04/18 06:17:11;;;;;;;;;;;;;;;;;;5019813;28;19985;-82
2023/04/18 06:19:37;;;;;;;;;;;;;;;;;;5012173;28;20400;-81
2023/04/18 06:22:02;;;;;;;;;;;;;;;;;;5007782;28;19910;-83
2023/04/18 06:24:27;;;;;;;;;;;;;;;;;;5006447;28;19937;-83
2023/04/18 06:26:54;;;;;;;;;;;;;;;;;;5009062;28;19917;-82
2023/04/18 06:29:19;;;;;;;;;;;;;;;;;;5016335;28;19910;-82
2023/04/18 06:31:45;;;;;;;;;;;;;;;;;;5039923;28;20340;-84
2023/04/18 06:34:10;;;;;;;;;;;;;;;;;;5011513;28;19920;-82
2023/04/18 06:36:36;;;;;;;;;;;;;;;;;;5012209;28;19922;-83
2023/04/18 06:39:01;;;;;;;;;;;;;;;;;;5024801;28;19921;-82
2023/04/18 06:41:26;;;;;;;;;;;;;;;;;;5026091;28;19894;-81
2023/04/18 06:43:52;;;;;;;;;;;;;;;;;;5012281;28;19914;-82
2023/04/18 06:46:17;;;;;;;;;;;;;;;;;;5012189;28;19913;-82
2023/04/18 06:48:42;;;;;;;;;;;;;;;;;;5007804;28;19993;-82
2023/04/18 06:51:08;;;;;;;;;;;;;;;;;;5007073;28;19916;-83
2023/04/18 06:53:33;;;;;;;;;;;;;;;;;;5020392;28;19914;-82
2023/04/18 06:55:58;;;;;;;;;;;;;;;;;;5040937;28;19914;-82
2023/04/18 06:58:24;;;;;;;;;;;;;;;;;;5011287;28;19917;-81
2023/04/18 07:00:50;;;;;;;;;;;;;;;;;;5014628;28;19921;-82
2023/04/18 07:03:16;;;;;;;;;;;;;;;;;;5017598;28;19921;-82
2023/04/18 07:05:41;;;;;;;;;;;;;;;;;;5023408;28;19917;-82
2023/04/18 07:08:06;;;;;;;;;;;;;;;;;;5019077;28;19922;-83
2023/04/18 07:10:32;;;;;;;;;;;;;;;;;;5011177;28;19917;-81
2023/04/18 07:12:57;;;;;;;;;;;;;;;;;;5023039;28;19921;-83
2023/04/18 07:15:23;;;;;;;;;;;;;;;;;;5013221;28;19910;-82
2023/04/18 07:17:48;;;;;;;;;;;;;;;;;;5026807;28;19919;-84
2023/04/18 07:20:13;;;;;;;;;;;;;;;;;;5060461;28;19909;-83
2023/04/18 07:22:39;;;;;;;;;;;;;;;;;;5025968;28;19928;-82
2023/04/18 07:25:05;;;;;;;;;;;;;;;;;;5029043;28;19940;-83
2023/04/18 07:27:30;;;;;;;;;;;;;;;;;;5013975;28;19904;-82
2023/04/18 07:29:56;;;;;;;;;;;;;;;;;;5017715;28;19917;-83
2023/04/18 07:32:21;;;;;;;;;;;;;;;;;;5012244;28;20441;-82
2023/04/18 07:34:47;;;;;;;;;;;;;;;;;;5028626;28;19967;-83
2023/04/18 07:37:12;;;;;;;;;;;;;;;;;;5023271;28;19894;-83
2023/04/18 07:39:38;;;;;;;;;;;;;;;;;;5024715;28;19894;-80
2023/04/18 07:42:03;;;;;;;;;;;;;;;;;;5043321;28;19973;-80
2023/04/18 07:44:28;;;;;;;;;;;;;;;;;;5046795;28;19925;-81
2023/04/18 07:46:54;;;;;;;;;;;;;;;;;;5018488;28;19937;-82
2023/04/18 07:49:19;;;;;;;;;;;;;;;;;;5013479;28;19960;-82
2023/04/18 07:51:44;;;;;;;;;;;;;;;;;;5014032;28;19913;-82
2023/04/18 07:54:10;;;;;;;;;;;;;;;;;;5011733;28;19941;-82
2023/04/18 07:56:35;;;;;;;;;;;;;;;;;;5010283;28;19905;-83
2023/04/18 07:59:00;;;;;;;;;;;;;;;;;;5007906;28;19913;-82
2023/04/18 08:01:26;;;;;;;;;;;;;;;;;;5002659;28;19996;-82
2023/04/18 08:03:53;;;;;;;;;;;;;;;;;;5003180;28;19914;-83
2023/04/18 08:06:19;;;;;;;;;;;;;;;;;;5002848;28;19922;-83
2023/04/18 08:08:44;;;;;;;;;;;;;;;;;;5005909;28;19940;-82
2023/04/18 08:11:09;;;;;;;;;;;;;;;;;;5004779;28;19913;-83
2023/04/18 08:13:35;;;;;;;;;;;;;;;;;;5004993;28;19969;-81
2023/04/18 08:16:01;;;;;;;;;;;;;;;;;;5008749;28;19897;-84
2023/04/18 08:18:27;;;;;;;;;;;;;;;;;;5010570;28;19910;-84
2023/04/18 08:20:52;;;;;;;;;;;;;;;;;;5004102;28;19964;-82
2023/04/18 08:23:17;;;;;;;;;;;;;;;;;;5004671;28;19909;-83
2023/04/18 08:25:43;;;;;;;;;;;;;;;;;;4999654;28;19918;-84
2023/04/18 08:28:08;;;;;;;;;;;;;;;;;;5006683;28;19924;-84
2023/04/18 08:30:33;;;;;;;;;;;;;;;;;;4997847;28;19936;-83
2023/04/18 08:32:59;;;;;;;;;;;;;;;;;;5007738;28;19949;-81
2023/04/18 08:35:24;;;;;;;;;;;;;;;;;;5012006;28;20019;-83
2023/04/18 08:37:49;;;;;;;;;;;;;;;;;;5040336;28;19943;-81
2023/04/18 08:40:15;;;;;;;;;;;;;;;;;;5013829;28;19914;-83
2023/04/18 08:42:40;;;;;;;;;;;;;;;;;;5040031;28;19909;-84
2023/04/18 08:45:06;;;;;;;;;;;;;;;;;;5013067;28;19921;-83
2023/04/18 08:47:31;;;;;;;;;;;;;;;;;;5010172;28;19916;-83
2023/04/18 08:49:57;;;;;;;;;;;;;;;;;;5014286;28;20372;-82
2023/04/18 08:52:22;;;;;;;;;;;;;;;;;;5040482;28;19921;-83
2023/04/18 08:54:48;;;;;;;;;;;;;;;;;;5014398;28;19917;-85
2023/04/18 08:57:15;;;;;;;;;;;;;;;;;;5014185;28;19917;-83
2023/04/18 08:59:40;;;;;;;;;;;;;;;;;;5008637;28;20343;-83
2023/04/18 09:02:07;;;;;;;;;;;;;;;;;;5009975;28;19914;-83
2023/04/18 09:04:33;;;;;;;;;;;;;;;;;;5006143;28;19918;-82
2023/04/18 09:06:58;;;;;;;;;;;;;;;;;;5005465;28;19961;-84
2023/04/18 09:09:26;;;;;;;;;;;;;;;;;;5008761;28;19921;-83
2023/04/18 09:11:51;;;;;;;;;;;;;;;;;;5006857;28;19910;-82
2023/04/18 09:14:17;;;;;;;;;;;;;;;;;;5008651;28;19968;-83
2023/04/18 09:16:42;;;;;;;;;;;;;;;;;;5043910;28;19925;-83
2023/04/18 09:19:09;;;;;;;;;;;;;;;;;;4989514;28;19921;-82
2023/04/18 09:21:35;;;;;;;;;;;;;;;;;;5005815;28;19916;-82
2023/04/18 09:24:00;;;;;;;;;;;;;;;;;;5009137;28;19894;-83
2023/04/18 09:26:27;;;;;;;;;;;;;;;;;;5014886;28;19914;-82
2023/04/18 09:28:53;;;;;;;;;;;;;;;;;;5010336;28;19913;-82
2023/04/18 09:31:21;;;;;;;;;;;;;;;;;;5006673;28;19910;-83
2023/04/18 09:33:46;;;;;;;;;;;;;;;;;;5002085;28;19913;-83
2023/04/18 09:36:12;;;;;;;;;;;;;;;;;;5012965;28;19922;-84
2023/04/18 09:38:37;;;;;;;;;;;;;;;;;;5008715;28;19914;-82
2023/04/18 09:41:02;;;;;;;;;;;;;;;;;;5004743;28;19976;-83
2023/04/18 09:43:28;;;;;;;;;;;;;;;;;;5004402;28;19917;-82
2023/04/18 09:45:53;;;;;;;;;;;;;;;;;;5004662;28;19961;-83
2023/04/18 09:48:18;;;;;;;;;;;;;;;;;;5007781;28;19917;-84
2023/04/18 09:50:44;;;;;;;;;;;;;;;;;;5006097;28;19916;-84
2023/04/18 09:53:09;;;;;;;;;;;;;;;;;;5009752;28;19917;-83
2023/04/18 09:55:34;;;;;;;;;;;;;;;;;;5011225;28;20008;-83
2023/04/18 09:58:00;;;;;;;;;;;;;;;;;;4992083;28;20019;-82
2023/04/18 10:00:25;;;;;;;;;;;;;;;;;;5010670;28;19910;-83
2023/04/18 10:02:50;;;;;;;;;;;;;;;;;;5030476;28;20041;-82
2023/04/18 10:05:16;;;;;;;;;;;;;;;;;;5041152;28;20452;-82
2023/04/18 10:07:41;;;;;;;;;;;;;;;;;;5015406;28;19921;-82
2023/04/18 10:10:06;;;;;;;;;;;;;;;;;;5042975;28;19916;-83
2023/04/18 10:12:32;;;;;;;;;;;;;;;;;;5042071;28;20385;-82
2023/04/18 10:14:57;;;;;;;;;;;;;;;;;;5013879;28;19916;-82
2023/04/18 10:17:23;;;;;;;;;;;;;;;;;;5011247;28;19964;-83
2023/04/18 10:19:48;;;;;;;;;;;;;;;;;;5018575;28;19914;-83
2023/04/18 10:22:13;;;;;;;;;;;;;;;;;;5016910;28;19913;-83
2023/04/18 10:24:39;;;;;;;;;;;;;;;;;;5023614;28;20337;-82
2023/04/18 10:27:04;;;;;;;;;;;;;;;;;;5019322;28;19914;-83
2023/04/18 10:29:29;;;;;;;;;;;;;;;;;;5013811;28;19890;-82
2023/04/18 10:31:55;;;;;;;;;;;;;;;;;;5013423;28;19985;-84
2023/04/18 10:34:20;;;;;;;;;;;;;;;;;;5038312;28;19909;-84
2023/04/18 10:36:45;;;;;;;;;;;;;;;;;;5003838;28;19980;-82
2023/04/18 10:39:11;;;;;;;;;;;;;;;;;;5007779;28;19909;-83
2023/04/18 10:41:37;;;;;;;;;;;;;;;;;;5010351;28;19920;-84
2023/04/18 10:44:02;;;;;;;;;;;;;;;;;;5042197;28;19910;-83
2023/04/18 10:46:27;;;;;;;;;;;;;;;;;;5008128;28;19917;-83
2023/04/18 10:48:53;;;;;;;;;;;;;;;;;;5008168;28;19913;-82
2023/04/18 10:51:19;;;;;;;;;;;;;;;;;;5002695;28;20007;-83
2023/04/18 10:53:44;;;;;;;;;;;;;;;;;;5009020;28;19916;-83
2023/04/18 10:56:10;;;;;;;;;;;;;;;;;;5013214;28;19949;-83
2023/04/18 10:58:35;;;;;;;;;;;;;;;;;;5042338;28;19909;-84
2023/04/18 11:01:00;;;;;;;;;;;;;;;;;;5010629;28;20369;-83
2023/04/18 11:03:26;;;;;;;;;;;;;;;;;;5000867;28;19920;-82
2023/04/18 11:05:51;;;;;;;;;;;;;;;;;;4998501;28;19918;-83
2023/04/18 11:08:16;;;;;;;;;;;;;;;;;;5010467;28;19936;-84
2023/04/18 11:10:42;;;;;;;;;;;;;;;;;;5005255;28;20009;-83
2023/04/18 11:13:07;;;;;;;;;;;;;;;;;;5002009;28;19910;-82
2023/04/18 11:15:33;;;;;;;;;;;;;;;;;;5001881;28;19913;-83
2023/04/18 11:17:58;;;;;;;;;;;;;;;;;;5007853;28;19918;-83
2023/04/18 11:20:23;;;;;;;;;;;;;;;;;;5009598;28;19948;-83
2023/04/18 11:22:49;;;;;;;;;;;;;;;;;;5035517;28;19922;-83
2023/04/18 11:25:14;;;;;;;;;;;;;;;;;;5008827;28;19918;-83
2023/04/18 11:27:39;;;;;;;;;;;;;;;;;;5008560;28;19910;-83
2023/04/18 11:30:05;;;;;;;;;;;;;;;;;;5005571;28;19914;-83
2023/04/18 11:32:30;;;;;;;;;;;;;;;;;;5005630;28;19910;-84
2023/04/18 11:34:55;;;;;;;;;;;;;;;;;;5040341;28;19925;-82
2023/04/18 11:37:21;;;;;;;;;;;;;;;;;;5007907;28;20327;-84
2023/04/18 11:39:47;;;;;;;;;;;;;;;;;;5008115;28;19929;-82
2023/04/18 11:42:12;;;;;;;;;;;;;;;;;;5001307;28;19933;-82
2023/04/18 11:44:38;;;;;;;;;;;;;;;;;;5005011;28;19913;-84
2023/04/18 11:47:04;;;;;;;;;;;;;;;;;;5004556;28;19910;-84
2023/04/18 11:49:29;;;;;;;;;;;;;;;;;;5009566;28;19944;-82
2023/04/18 11:51:54;;;;;;;;;;;;;;;;;;5008118;28;19933;-82
2023/04/18 11:54:20;;;;;;;;;;;;;;;;;;5010519;28;19914;-83
2023/04/18 11:56:45;;;;;;;;;;;;;;;;;;5009419;28;20905;-84
2023/04/18 11:59:11;;;;;;;;;;;;;;;;;;4996510;28;19921;-83
2023/04/18 12:01:36;;;;;;;;;;;;;;;;;;5007764;28;19989;-83
2023/04/18 12:04:01;;;;;;;;;;;;;;;;;;5021382;28;19963;-82
2023/04/18 12:06:28;;;;;;;;;;;;;;;;;;5022267;28;19921;-84
2023/04/18 12:08:53;;;;;;;;;;;;;;;;;;5020066;28;19971;-84
2023/04/18 12:11:19;;;;;;;;;;;;;;;;;;5017123;28;19913;-82
2023/04/18 12:13:44;;;;;;;;;;;;;;;;;;5023671;28;19956;-84
2023/04/18 12:16:10;;;;;;;;;;;;;;;;;;5024776;28;19909;-82
2023/04/18 12:18:35;;;;;;;;;;;;;;;;;;5047011;28;19914;-83
2023/04/18 12:21:01;;;;;;;;;;;;;;;;;;5024350;28;19909;-84
2023/04/18 12:23:26;;;;;;;;;;;;;;;;;;5021445;28;20369;-83
2023/04/18 12:25:51;;;;;;;;;;;;;;;;;;5010650;28;20004;-84
2023/04/18 12:28:18;;;;;;;;;;;;;;;;;;5045893;28;19936;-83
2023/04/18 12:30:44;;;;;;;;;;;;;;;;;;5021877;28;19916;-83
2023/04/18 12:33:09;;;;;;;;;;;;;;;;;;5030122;28;19914;-83
2023/04/18 12:35:35;;;;;;;;;;;;;;;;;;5013936;28;19921;-84
2023/04/18 12:38:01;;;;;;;;;;;;;;;;;;5014711;28;19920;-83
2023/04/18 12:40:26;;;;;;;;;;;;;;;;;;5018729;28;20369;-82
2023/04/18 12:42:51;;;;;;;;;;;;;;;;;;5012555;28;19914;-84
2023/04/18 12:45:17;;;;;;;;;;;;;;;;;;5036828;28;20376;-83
2023/04/18 12:47:42;;;;;;;;;;;;;;;;;;5008889;28;19914;-83
2023/04/18 12:50:07;;;;;;;;;;;;;;;;;;5006491;28;19912;-83
2023/04/18 12:52:33;;;;;;;;;;;;;;;;;;5006434;28;19921;-82
2023/04/18 12:54:58;;;;;;;;;;;;;;;;;;5006467;28;20029;-83
2023/04/18 12:57:23;;;;;;;;;;;;;;;;;;5006541;28;19917;-83
2023/04/18 12:59:49;;;;;;;;;;;;;;;;;;5008328;28;19936;-84
2023/04/18 13:02:14;;;;;;;;;;;;;;;;;;5004421;28;19949;-83
2023/04/18 13:04:39;;;;;;;;;;;;;;;;;;5005401;28;20311;-84
2023/04/18 13:07:05;;;;;;;;;;;;;;;;;;5007491;28;20384;-84
2023/04/18 13:09:30;;;;;;;;;;;;;;;;;;5039229;28;19909;-83
2023/04/18 13:11:55;;;;;;;;;;;;;;;;;;5007035;28;19913;-84
2023/04/18 13:14:21;;;;;;;;;;;;;;;;;;5009368;28;19913;-83
2023/04/18 13:16:47;;;;;;;;;;;;;;;;;;5009103;28;19920;-85
2023/04/18 13:19:12;;;;;;;;;;;;;;;;;;5008900;28;19917;-82
2023/04/18 13:21:38;;;;;;;;;;;;;;;;;;5002509;28;19913;-85
2023/04/18 13:24:03;;;;;;;;;;;;;;;;;;5002562;28;20389;-83
2023/04/18 13:26:28;;;;;;;;;;;;;;;;;;5003828;28;19921;-84
2023/04/18 13:28:54;;;;;;;;;;;;;;;;;;5003880;28;19910;-83
2023/04/18 13:31:19;;;;;;;;;;;;;;;;;;5003113;28;20017;-82
2023/04/18 13:33:45;;;;;;;;;;;;;;;;;;5003818;28;19917;-85
2023/04/18 13:36:10;;;;;;;;;;;;;;;;;;5001952;28;19965;-83
2023/04/18 13:38:35;;;;;;;;;;;;;;;;;;5004681;28;19940;-83
2023/04/18 13:41:01;;;;;;;;;;;;;;;;;;5014303;28;19957;-83
2023/04/18 13:43:26;;;;;;;;;;;;;;;;;;4999530;28;19955;-83
2023/04/18 13:45:51;;;;;;;;;;;;;;;;;;4996986;28;20381;-83
2023/04/18 13:48:17;;;;;;;;;;;;;;;;;;5008879;28;19931;-84
2023/04/18 13:50:42;;;;;;;;;;;;;;;;;;5010546;28;19914;-84
2023/04/18 13:53:07;;;;;;;;;;;;;;;;;;5026708;28;19976;-84
2023/04/18 13:55:33;;;;;;;;;;;;;;;;;;4998373;28;19919;-84
2023/04/18 13:57:58;;;;;;;;;;;;;;;;;;4998885;28;20008;-82
2023/04/18 14:00:23;;;;;;;;;;;;;;;;;;4996973;28;19918;-82
2023/04/18 14:02:49;;;;;;;;;;;;;;;;;;4996070;28;19949;-83
2023/04/18 14:05:14;;;;;;;;;;;;;;;;;;4995683;28;20054;-83
2023/04/18 14:07:40;;;;;;;;;;;;;;;;;;4988368;28;19917;-84
2023/04/18 14:10:05;;;;;;;;;;;;;;;;;;5028554;28;20393;-84
2023/04/18 14:12:31;;;;;;;;;;;;;;;;;;5030289;28;19914;-84
2023/04/18 14:14:56;;;;;;;;;;;;;;;;;;5019152;28;19917;-83
2023/04/18 14:17:21;;;;;;;;;;;;;;;;;;4996803;28;19916;-84
2023/04/18 14:19:48;;;;;;;;;;;;;;;;;;4997919;28;20048;-83
2023/04/18 14:22:13;;;;;;;;;;;;;;;;;;5036999;28;19948;-84
2023/04/18 14:24:38;;;;;;;;;;;;;;;;;;4996289;28;19940;-84
2023/04/18 14:27:04;;;;;;;;;;;;;;;;;;5026868;28;19909;-83
2023/04/18 14:29:29;;;;;;;;;;;;;;;;;;4995404;28;19980;-85
2023/04/18 14:31:55;;;;;;;;;;;;;;;;;;5028082;28;20061;-84
2023/04/18 14:34:20;;;;;;;;;;;;;;;;;;4996621;28;19928;-84
2023/04/18 14:36:45;;;;;;;;;;;;;;;;;;4996633;28;19922;-83
2023/04/18 14:39:11;;;;;;;;;;;;;;;;;;4997039;28;19898;-84
2023/04/18 14:41:37;;;;;;;;;;;;;;;;;;4997165;28;19942;-84
2023/04/18 14:44:02;;;;;;;;;;;;;;;;;;4996195;28;19979;-83
2023/04/18 14:46:29;;;;;;;;;;;;;;;;;;4996482;28;20000;-83
2023/04/18 14:48:54;;;;;;;;;;;;;;;;;;5028290;28;19921;-85
2023/04/18 14:51:20;;;;;;;;;;;;;;;;;;4998258;28;19910;-83
2023/04/18 14:53:45;;;;;;;;;;;;;;;;;;5000102;28;19967;-83
2023/04/18 14:56:10;;;;;;;;;;;;;;;;;;5000912;28;19940;-83
2023/04/18 14:58:36;;;;;;;;;;;;;;;;;;5029046;28;20051;-82
2023/04/18 15:01:01;;;;;;;;;;;;;;;;;;4999015;28;19920;-82
2023/04/18 15:03:26;;;;;;;;;;;;;;;;;;5003661;28;19921;-83
2023/04/18 15:05:52;;;;;;;;;;;;;;;;;;4999176;28;19914;-84
2023/04/18 15:08:17;;;;;;;;;;;;;;;;;;5001744;28;19913;-84
2023/04/18 15:10:43;;;;;;;;;;;;;;;;;;4995465;28;20028;-85
2023/04/18 15:13:08;;;;;;;;;;;;;;;;;;5004124;28;19918;-82
2023/04/18 15:15:34;;;;;;;;;;;;;;;;;;4998296;28;19932;-83
2023/04/18 15:17:59;;;;;;;;;;;;;;;;;;4989702;28;20381;-81
2023/04/18 15:20:25;;;;;;;;;;;;;;;;;;4991239;28;20332;-83
2023/04/18 15:22:50;;;;;;;;;;;;;;;;;;4998510;28;19936;-82
2023/04/18 15:25:16;;;;;;;;;;;;;;;;;;4994671;28;20280;-83
2023/04/18 15:27:41;;;;;;;;;;;;;;;;;;5001095;28;19936;-82
2023/04/18 15:30:07;;;;;;;;;;;;;;;;;;5028304;28;19909;-82
2023/04/18 15:32:32;;;;;;;;;;;;;;;;;;5003097;28;19913;-83
2023/04/18 15:34:58;;;;;;;;;;;;;;;;;;5002043;28;19922;-83
2023/04/18 15:37:23;;;;;;;;;;;;;;;;;;4999312;28;19918;-83
2023/04/18 15:39:48;;;;;;;;;;;;;;;;;;5024857;28;19920;-83
2023/04/18 15:42:14;;;;;;;;;;;;;;;;;;4988030;28;19914;-83
2023/04/18 15:44:39;;;;;;;;;;;;;;;;;;5004192;28;20245;-83
2023/04/18 15:47:05;;;;;;;;;;;;;;;;;;4999201;28;19917;-84
2023/04/18 15:49:30;;;;;;;;;;;;;;;;;;5012624;28;19921;-84
2023/04/18 15:51:56;;;;;;;;;;;;;;;;;;4993075;28;19914;-82
2023/04/18 15:54:21;;;;;;;;;;;;;;;;;;4994033;28;19960;-83
2023/04/18 15:56:46;;;;;;;;;;;;;;;;;;4994405;28;20305;-82
2023/04/18 15:59:12;;;;;;;;;;;;;;;;;;5000828;28;20347;-85
2023/04/18 16:01:37;;;;;;;;;;;;;;;;;;4993271;28;20304;-82
2023/04/18 16:04:03;;;;;;;;;;;;;;;;;;4995081;28;19909;-82
2023/04/18 16:06:28;;;;;;;;;;;;;;;;;;4994963;28;20301;-84
2023/04/18 16:08:53;;;;;;;;;;;;;;;;;;4994336;28;19913;-82
2023/04/18 16:11:20;;;;;;;;;;;;;;;;;;4995653;28;20358;-82
2023/04/18 16:13:45;;;;;;;;;;;;;;;;;;4993716;28;20000;-81
2023/04/18 16:16:10;;;;;;;;;;;;;;;;;;4993049;28;19956;-82
2023/04/18 16:18:36;;;;;;;;;;;;;;;;;;4995633;28;19976;-84
2023/04/18 16:21:01;;;;;;;;;;;;;;;;;;5000353;28;19913;-82
2023/04/18 16:23:26;;;;;;;;;;;;;;;;;;4997188;28;20250;-82
2023/04/18 16:25:54;;;;;;;;;;;;;;;;;;5021809;28;19924;-83
2023/04/18 16:28:19;;;;;;;;;;;;;;;;;;4994278;28;19936;-83
2023/04/18 16:30:44;;;;;;;;;;;;;;;;;;5002819;28;19913;-83
2023/04/18 16:33:10;;;;;;;;;;;;;;;;;;4991573;28;19909;-82
2023/04/18 16:35:35;;;;;;;;;;;;;;;;;;5006796;28;19921;-84